Time;durP1;ratioP1;P1;durP2;ratioP2;P2;SDS_P1;SDS_P2;PMS_P1;PMS_P2;Temp;Humidity;BMP_temperature;BMP_pressure;BME280_temperature;BME280_humidity;BME280_pressure;Samples;Min_cycle;Max_cycle;Signal;HPM_P1;HPM_P2
2020/12/26 00:01:14;;;;;;;7.82;3.33;;;;;;;4.65;75.34;100535.81;6186006;23;20053;-85
2020/12/26 00:03:41;;;;;;;8.07;4.13;;;;;;;4.66;75.94;100534.91;6157287;23;20024;-86
2020/12/26 00:06:07;;;;;;;12.35;5.00;;;;;;;4.66;75.73;100529.69;6188954;23;20025;-86
2020/12/26 00:08:35;;;;;;;12.25;4.85;;;;;;;4.67;76.01;100530.53;6163782;23;20321;-85
2020/12/26 00:11:06;;;;;;;8.88;5.13;;;;;;;4.66;75.77;100529.69;6190079;23;20032;-85
2020/12/26 00:13:33;;;;;;;10.13;5.30;;;;;;;4.67;75.85;100522.72;6162781;23;20531;-84
2020/12/26 00:16:06;;;;;;;10.77;6.70;;;;;;;4.66;75.97;100531.44;6189836;23;20088;-85
2020/12/26 00:18:34;;;;;;;10.77;5.53;;;;;;;4.68;75.91;100529.69;6163184;23;20025;-86
2020/12/26 00:21:04;;;;;;;18.77;6.15;;;;;;;4.68;76.16;100533.13;6163158;23;20340;-85
2020/12/26 00:23:30;;;;;;;13.88;6.05;;;;;;;4.68;75.79;100533.13;6160923;23;20021;-85
2020/12/26 00:25:56;;;;;;;7.88;5.10;;;;;;;4.69;76.14;100523.56;6164943;23;20028;-83
2020/12/26 00:28:24;;;;;;;10.57;4.45;;;;;;;4.70;76.21;100525.28;6192547;23;20021;-84
2020/12/26 00:30:50;;;;;;;11.63;4.60;;;;;;;4.71;76.13;100521.75;6190577;23;20025;-82
2020/12/26 00:33:16;;;;;;;13.10;4.55;;;;;;;4.71;75.93;100521.75;6189509;23;20025;-86
2020/12/26 00:35:43;;;;;;;9.63;4.45;;;;;;;4.71;76.22;100519.16;6165104;23;20021;-86
2020/12/26 00:38:09;;;;;;;10.27;4.75;;;;;;;4.71;76.12;100519.16;6165509;23;20032;-85
2020/12/26 00:40:36;;;;;;;10.77;4.07;;;;;;;4.73;76.18;100526.94;6192836;23;20099;-85
2020/12/26 00:43:02;;;;;;;14.75;4.43;;;;;;;4.73;76.00;100530.44;6193351;23;20037;-86
2020/12/26 00:45:29;;;;;;;11.05;4.15;;;;;;;4.73;75.91;100522.59;6191571;23;20032;-85
2020/12/26 00:47:55;;;;;;;9.23;3.85;;;;;;;4.73;75.96;100520.00;6164049;23;20029;-84
2020/12/26 00:50:22;;;;;;;8.98;4.20;;;;;;;4.73;75.63;100512.19;6164910;23;20032;-86
2020/12/26 00:52:49;;;;;;;10.60;3.55;;;;;;;4.74;76.12;100513.06;6166783;23;20048;-84
2020/12/26 00:55:15;;;;;;;9.18;4.03;;;;;;;4.73;75.96;100509.56;6165132;23;20028;-84
2020/12/26 00:57:44;;;;;;;8.15;3.70;;;;;;;4.73;75.70;100506.97;6190455;23;20056;-85
2020/12/26 01:00:11;;;;;;;7.28;3.38;;;;;;;4.74;75.67;100508.66;6163675;23;20395;-84
2020/12/26 01:02:39;;;;;;;9.90;3.70;;;;;;;4.72;75.86;100509.59;6163057;23;20021;-86
2020/12/26 01:05:05;;;;;;;10.05;3.47;;;;;;;4.72;75.71;100507.84;6167982;23;20036;-85
2020/12/26 01:07:31;;;;;;;10.40;3.08;;;;;;;4.73;75.83;100513.91;6191363;23;20405;-86
2020/12/26 01:09:57;;;;;;;8.73;3.45;;;;;;;4.72;75.90;100520.91;6165480;23;20360;-85
2020/12/26 01:12:23;;;;;;;6.60;2.80;;;;;;;4.72;76.16;100513.06;6188555;23;20021;-85
2020/12/26 01:14:49;;;;;;;7.78;3.25;;;;;;;4.72;76.06;100526.13;6190790;23;20029;-84
2020/12/26 01:17:16;;;;;;;4.38;2.75;;;;;;;4.73;76.15;100533.03;6163702;23;20017;-85
2020/12/26 01:19:55;;;;;;;5.68;3.00;;;;;;;4.73;76.16;100530.44;6190870;23;20029;-85
2020/12/26 01:22:22;;;;;;;6.18;2.70;;;;;;;4.73;76.25;100525.22;6191353;23;20024;-85
2020/12/26 01:24:48;;;;;;;6.78;2.90;;;;;;;4.76;76.20;100519.94;6164907;23;20460;-84
2020/12/26 01:27:14;;;;;;;5.15;3.33;;;;;;;4.77;76.17;100521.66;6165282;23;20352;-86
2020/12/26 01:29:45;;;;;;;5.60;3.40;;;;;;;4.78;76.33;100520.75;6191473;23;20051;-86
2020/12/26 01:32:11;;;;;;;6.68;2.70;;;;;;;4.79;76.24;100516.41;6163493;23;20017;-86
2020/12/26 01:34:38;;;;;;;7.72;2.55;;;;;;;4.80;76.20;100518.13;6189939;23;20036;-85
2020/12/26 01:37:06;;;;;;;4.45;2.53;;;;;;;4.80;75.99;100519.00;6164759;23;20028;-86
2020/12/26 01:39:32;;;;;;;6.03;2.22;;;;;;;4.80;75.96;100516.38;6165943;23;20075;-85
2020/12/26 01:41:58;;;;;;;9.85;2.92;;;;;;;4.81;76.02;100512.88;6189747;23;20356;-85
2020/12/26 01:44:25;;;;;;;5.45;2.72;;;;;;;4.80;75.97;100508.56;6162197;23;20452;-84
2020/12/26 01:46:52;;;;;;;10.38;3.40;;;;;;;4.81;75.85;100512.00;6163684;23;20029;-84
2020/12/26 01:49:23;;;;;;;8.95;2.33;;;;;;;4.78;75.46;100510.31;6165448;23;20025;-86
2020/12/26 01:51:50;;;;;;;8.45;3.08;;;;;;;4.79;75.45;100517.25;6190174;23;20028;-86
2020/12/26 01:54:17;;;;;;;9.43;2.47;;;;;;;4.78;75.74;100515.53;6165265;23;20036;-84
2020/12/26 01:56:44;;;;;;;8.00;2.35;;;;;;;4.78;75.67;100514.66;6166629;23;20021;-86
2020/12/26 01:59:10;;;;;;;8.23;2.20;;;;;;;4.78;75.67;100517.28;6163467;23;20025;-85
2020/12/26 02:01:39;;;;;;;7.40;2.22;;;;;;;4.76;75.71;100519.06;6164340;23;20025;-84
2020/12/26 02:04:06;;;;;;;8.35;2.50;;;;;;;4.76;75.83;100519.94;6164802;23;20026;-84
2020/12/26 02:06:38;;;;;;;6.82;2.72;;;;;;;4.73;75.39;100513.91;6165683;23;20460;-86
2020/12/26 02:09:06;;;;;;;8.43;2.50;;;;;;;4.73;75.89;100506.97;6166816;23;20021;-86
2020/12/26 02:11:32;;;;;;;7.95;2.83;;;;;;;4.73;75.61;100511.31;6192711;23;20029;-84
2020/12/26 02:13:59;;;;;;;4.88;2.58;;;;;;;4.72;76.07;100517.41;6190508;23;20287;-85
2020/12/26 02:16:25;;;;;;;6.00;2.83;;;;;;;4.71;75.66;100518.31;6163674;23;20028;-84
2020/12/26 02:18:51;;;;;;;7.70;2.70;;;;;;;4.71;75.57;100521.75;6190472;23;20459;-86
2020/12/26 02:21:22;;;;;;;7.10;2.58;;;;;;;4.68;75.71;100519.25;6190067;23;20021;-84
2020/12/26 02:23:49;;;;;;;2.92;2.45;;;;;;;4.66;76.03;100511.44;6191940;23;20405;-84
2020/12/26 02:26:15;;;;;;;9.25;3.47;;;;;;;4.63;75.73;100511.50;6164933;23;20029;-84
2020/12/26 02:28:41;;;;;;;6.55;2.60;;;;;;;4.61;75.61;100508.06;6188660;23;20460;-85
2020/12/26 02:31:08;;;;;;;11.48;3.40;;;;;;;4.57;75.94;100502.03;6189171;23;20029;-84
2020/12/26 02:33:37;;;;;;;10.82;2.88;;;;;;;4.56;75.75;100509.91;6190645;23;20340;-84
2020/12/26 02:36:04;;;;;;;11.35;3.58;;;;;;;4.52;75.48;100500.44;6189489;23;20025;-86
2020/12/26 02:38:30;;;;;;;6.00;2.95;;;;;;;4.49;75.65;100503.09;6164582;23;20039;-86
2020/12/26 02:40:56;;;;;;;7.38;2.42;;;;;;;4.47;75.75;100504.88;6189733;23;20028;-84
2020/12/26 02:43:24;;;;;;;5.53;2.35;;;;;;;4.43;75.68;100510.16;6189842;23;20021;-86
2020/12/26 02:45:52;;;;;;;9.85;2.67;;;;;;;4.43;75.97;100509.28;6191440;23;20032;-86
2020/12/26 02:48:18;;;;;;;8.02;2.22;;;;;;;4.43;76.11;100509.28;6187731;23;20032;-84
2020/12/26 02:51:01;;;;;;;7.13;2.38;;;;;;;4.40;75.30;100498.91;6189263;23;20123;-86
2020/12/26 02:53:30;;;;;;;5.22;2.22;;;;;;;4.43;76.19;100502.34;6163687;23;20013;-84
2020/12/26 02:55:56;;;;;;;7.53;2.50;;;;;;;4.44;76.35;100503.19;6191520;23;20025;-84
2020/12/26 02:58:26;;;;;;;7.38;2.58;;;;;;;4.43;76.19;100501.47;6162684;23;20028;-84
2020/12/26 03:00:52;;;;;;;6.07;2.22;;;;;;;4.47;76.54;100510.06;6190242;23;20029;-84
2020/12/26 03:03:18;;;;;;;7.97;2.58;;;;;;;4.47;76.59;100508.34;6189739;23;20021;-84
2020/12/26 03:05:44;;;;;;;5.10;2.53;;;;;;;4.49;76.16;100514.38;6190754;23;20020;-83
2020/12/26 03:08:11;;;;;;;6.88;2.55;;;;;;;4.49;76.38;100498.72;6189524;23;20523;-83
2020/12/26 03:10:37;;;;;;;10.80;2.70;;;;;;;4.49;76.30;100503.09;6190032;23;20021;-85
2020/12/26 03:13:04;;;;;;;8.25;2.75;;;;;;;4.50;76.43;100491.78;6189971;23;20029;-83
2020/12/26 03:15:30;;;;;;;7.68;2.58;;;;;;;4.50;76.22;100486.56;6191148;23;20027;-83
2020/12/26 03:17:58;;;;;;;7.53;2.50;;;;;;;4.51;76.25;100483.06;6163394;23;20025;-84
2020/12/26 03:20:24;;;;;;;6.40;2.38;;;;;;;4.50;75.92;100492.66;6191960;23;20021;-83
2020/12/26 03:22:50;;;;;;;7.53;2.63;;;;;;;4.50;76.24;100477.00;6192795;23;20021;-83
2020/12/26 03:25:17;;;;;;;7.20;2.10;;;;;;;4.49;76.18;100484.84;6162198;23;20024;-86
2020/12/26 03:27:43;;;;;;;9.70;2.17;;;;;;;4.48;76.07;100483.97;6164396;23;20021;-83
2020/12/26 03:30:09;;;;;;;11.10;2.28;;;;;;;4.47;76.26;100477.06;6191342;23;20024;-84
2020/12/26 03:32:36;;;;;;;10.27;2.67;;;;;;;4.47;76.31;100479.66;6160468;23;20534;-84
2020/12/26 03:35:03;;;;;;;7.85;2.50;;;;;;;4.48;76.16;100483.13;6161819;23;20020;-83
2020/12/26 03:37:30;;;;;;;7.05;2.10;;;;;;;4.48;76.31;100470.94;6164075;23;20360;-83
2020/12/26 03:39:59;;;;;;;12.02;3.05;;;;;;;4.49;76.25;100469.22;6189998;23;20081;-82
2020/12/26 03:42:25;;;;;;;8.48;2.45;;;;;;;4.49;76.14;100459.63;6189314;23;20021;-84
2020/12/26 03:44:51;;;;;;;7.50;2.28;;;;;;;4.51;76.25;100459.59;6163779;23;20025;-85
2020/12/26 03:47:17;;;;;;;4.30;2.50;;;;;;;4.50;76.29;100450.94;6163346;23;20021;-83
2020/12/26 03:49:44;;;;;;;11.77;2.95;;;;;;;4.51;75.99;100459.59;6190966;23;20036;-83
2020/12/26 03:52:10;;;;;;;10.88;2.47;;;;;;;4.51;75.91;100455.25;6162402;23;20024;-85
2020/12/26 03:54:39;;;;;;;7.78;2.50;;;;;;;4.50;75.48;100458.75;6165954;23;20025;-85
2020/12/26 03:57:05;;;;;;;9.60;2.22;;;;;;;4.52;75.83;100453.50;6164751;23;20031;-83
2020/12/26 03:59:31;;;;;;;11.15;3.10;;;;;;;4.53;76.09;100456.06;6189314;23;20025;-83
2020/12/26 04:01:57;;;;;;;6.22;2.60;;;;;;;4.53;76.04;100448.25;6188284;23;20024;-83
2020/12/26 04:04:24;;;;;;;6.55;2.40;;;;;;;4.54;76.09;100449.09;6191133;23;20021;-85
2020/12/26 04:06:54;;;;;;;7.88;2.63;;;;;;;4.54;76.07;100449.09;6191854;23;20032;-83
2020/12/26 04:09:20;;;;;;;12.25;2.90;;;;;;;4.56;76.21;100450.78;6189516;23;20025;-83
2020/12/26 04:11:46;;;;;;;6.70;2.45;;;;;;;4.56;76.08;100445.56;6189661;23;20036;-84
2020/12/26 04:14:13;;;;;;;5.63;2.55;;;;;;;4.60;75.99;100440.31;6164539;23;20025;-85
2020/12/26 04:16:39;;;;;;;11.13;2.40;;;;;;;4.61;76.31;100445.50;6188367;23;20029;-85
2020/12/26 04:19:05;;;;;;;6.70;2.75;;;;;;;4.62;76.27;100438.50;6162945;23;20033;-83
2020/12/26 04:21:50;;;;;;;7.13;2.60;;;;;;;4.65;76.20;100431.50;6167645;23;20021;-83
2020/12/26 04:24:16;;;;;;;6.15;2.38;;;;;;;4.66;76.10;100438.44;6163854;23;20025;-84
2020/12/26 04:26:44;;;;;;;5.78;2.22;;;;;;;4.67;76.00;100428.84;6162512;23;20020;-83
2020/12/26 04:29:10;;;;;;;6.78;2.75;;;;;;;4.68;75.95;100426.19;6163735;23;20336;-85
2020/12/26 04:31:37;;;;;;;11.82;2.88;;;;;;;4.68;75.80;100420.16;6162397;23;20478;-85
2020/12/26 04:34:06;;;;;;;8.23;2.60;;;;;;;4.69;75.70;100421.84;6164806;23;20052;-85
2020/12/26 04:36:33;;;;;;;8.82;2.80;;;;;;;4.69;75.58;100408.81;6163150;23;20025;-85
2020/12/26 04:38:59;;;;;;;10.05;3.25;;;;;;;4.68;75.84;100414.94;6188764;23;20035;-85
2020/12/26 04:41:26;;;;;;;4.55;2.90;;;;;;;4.68;75.81;100414.94;6164581;23;20025;-85
2020/12/26 04:43:55;;;;;;;9.07;3.15;;;;;;;4.67;75.25;100421.00;6188561;23;20028;-83
2020/12/26 04:46:26;;;;;;;12.52;3.58;;;;;;;4.65;75.56;100415.84;6189518;23;20032;-84
2020/12/26 04:49:05;;;;;;;7.95;3.65;;;;;;;4.64;74.90;100402.84;6188837;23;20396;-85
2020/12/26 04:51:35;;;;;;;8.63;3.88;;;;;;;4.65;75.40;100414.97;6188347;23;20027;-84
2020/12/26 04:54:25;;;;;;;16.60;3.88;;;;;;;4.63;74.70;100408.97;6187462;23;20348;-84
2020/12/26 04:56:54;;;;;;;11.52;3.72;;;;;;;4.65;75.19;100413.25;6189170;23;20116;-85
2020/12/26 04:59:22;;;;;;;13.75;4.30;;;;;;;4.63;75.43;100412.41;6162545;23;20021;-84
2020/12/26 05:01:50;;;;;;;6.32;3.70;;;;;;;4.61;75.41;100406.38;6189435;23;20192;-84
2020/12/26 05:04:16;;;;;;;11.32;4.32;;;;;;;4.61;75.29;100405.50;6162827;23;20036;-84
2020/12/26 05:06:50;;;;;;;10.07;3.88;;;;;;;4.56;74.71;100403.84;6189858;23;20464;-85
2020/12/26 05:09:17;;;;;;;8.80;3.95;;;;;;;4.58;75.05;100406.44;6166250;23;20333;-85
2020/12/26 05:11:56;;;;;;;8.50;4.28;;;;;;;4.53;74.78;100396.09;6193272;23;20028;-85
2020/12/26 05:14:24;;;;;;;10.27;4.35;;;;;;;4.52;75.46;100381.34;6167849;23;20026;-85
2020/12/26 05:16:51;;;;;;;6.30;3.97;;;;;;;4.51;75.27;100386.59;6192541;23;20460;-83
2020/12/26 05:19:18;;;;;;;13.38;5.10;;;;;;;4.47;75.26;100379.72;6189629;23;20487;-85
2020/12/26 05:21:52;;;;;;;13.27;4.88;;;;;;;4.42;74.67;100378.06;6166411;23;20825;-84
2020/12/26 05:24:18;;;;;;;6.63;4.50;;;;;;;4.42;75.05;100369.41;6191860;23;20072;-83
2020/12/26 05:26:49;;;;;;;12.75;4.90;;;;;;;4.38;75.07;100371.22;6189700;23;20092;-84
2020/12/26 05:29:16;;;;;;;11.95;4.97;;;;;;;4.35;75.08;100376.50;6190614;23;20043;-85
2020/12/26 05:31:53;;;;;;;14.00;5.30;;;;;;;4.30;74.65;100373.16;6168331;23;20333;-83
2020/12/26 05:34:20;;;;;;;10.50;5.18;;;;;;;4.28;75.09;100375.78;6165289;23;20051;-84
2020/12/26 05:36:47;;;;;;;10.05;5.25;;;;;;;4.26;75.51;100377.53;6169219;23;20021;-85
2020/12/26 05:39:14;;;;;;;14.85;5.63;;;;;;;4.25;75.51;100373.22;6192455;23;20464;-83
2020/12/26 05:41:42;;;;;;;9.15;5.18;;;;;;;4.22;75.82;100375.06;6191667;23;20021;-84
2020/12/26 05:44:10;;;;;;;9.85;5.38;;;;;;;4.21;75.98;100374.19;6167257;23;20408;-85
2020/12/26 05:46:36;;;;;;;10.93;5.18;;;;;;;4.22;75.85;100359.41;6164374;23;20021;-85
2020/12/26 05:49:25;;;;;;;11.85;6.22;;;;;;;4.19;75.24;100360.34;6195659;23;20029;-84
2020/12/26 05:51:56;;;;;;;6.88;5.25;;;;;;;4.24;76.33;100358.50;6166135;23;20024;-83
2020/12/26 05:54:24;;;;;;;13.07;6.60;;;;;;;4.26;76.54;100355.84;6189530;23;20027;-83
2020/12/26 05:57:11;;;;;;;13.68;6.25;;;;;;;4.25;75.94;100355.00;6167127;23;20021;-85
2020/12/26 05:59:39;;;;;;;12.23;6.07;;;;;;;4.32;76.57;100357.44;6165821;23;20025;-83
2020/12/26 06:02:28;;;;;;;12.07;5.60;;;;;;;4.32;75.88;100349.63;6190155;23;20032;-84
2020/12/26 06:04:59;;;;;;;10.43;5.53;;;;;;;4.37;76.46;100345.19;6163846;23;20024;-87
2020/12/26 06:07:32;;;;;;;12.00;6.25;;;;;;;4.41;76.61;100341.63;6161248;23;20028;-85
2020/12/26 06:10:01;;;;;;;11.00;6.20;;;;;;;4.44;76.58;100346.75;6162626;23;20056;-86
2020/12/26 06:12:29;;;;;;;9.07;5.72;;;;;;;4.47;76.72;100349.31;6165205;23;20028;-86
2020/12/26 06:14:56;;;;;;;10.43;5.60;;;;;;;4.49;76.48;100341.47;6166321;23;20032;-86
2020/12/26 06:17:28;;;;;;;9.95;5.90;;;;;;;4.49;75.86;100347.50;6169456;23;20028;-86
2020/12/26 06:20:00;;;;;;;10.00;5.93;;;;;;;4.53;76.40;100343.13;6170373;23;20021;-86
2020/12/26 06:22:50;;;;;;;7.97;5.85;;;;;;;4.52;75.72;100363.09;6165297;23;20044;-86
2020/12/26 06:25:18;;;;;;;11.43;5.88;;;;;;;4.54;76.18;100356.13;6193238;23;20028;-86
2020/12/26 06:28:08;;;;;;;10.90;6.10;;;;;;;4.53;75.30;100351.78;6195661;23;20025;-86
2020/12/26 06:30:37;;;;;;;11.68;5.38;;;;;;;4.56;75.83;100356.94;6167246;23;20028;-86
2020/12/26 06:33:06;;;;;;;11.38;6.20;;;;;;;4.57;75.79;100360.41;6166120;23;20040;-86
2020/12/26 06:35:32;;;;;;;9.77;5.80;;;;;;;4.57;76.07;100360.41;6166787;23;20063;-86
2020/12/26 06:38:26;;;;;;;9.82;5.50;;;;;;;4.52;75.32;100365.72;6168475;23;20025;-86
2020/12/26 06:40:55;;;;;;;11.73;6.10;;;;;;;4.53;75.82;100362.19;6167016;23;20029;-86
2020/12/26 06:43:39;;;;;;;12.65;5.53;;;;;;;4.49;74.49;100357.09;6187776;23;20025;-86
2020/12/26 06:46:29;;;;;;;10.70;5.50;;;;;;;4.48;75.47;100356.22;6186731;23;20021;-86
2020/12/26 06:48:57;;;;;;;11.50;5.55;;;;;;;4.48;76.05;100355.41;6160150;23;20032;-85
2020/12/26 06:51:28;;;;;;;8.35;5.20;;;;;;;4.46;76.00;100360.63;6160180;23;20482;-85
2020/12/26 06:54:02;;;;;;;8.25;5.55;;;;;;;4.43;75.62;100365.91;6159947;23;20021;-85
2020/12/26 06:56:34;;;;;;;11.45;6.82;;;;;;;4.44;75.61;100365.00;6186698;23;20021;-86
2020/12/26 06:59:08;;;;;;;9.93;5.60;;;;;;;4.46;76.25;100373.69;6186668;23;20352;-85
2020/12/26 07:01:45;;;;;;;10.32;5.35;;;;;;;4.48;76.22;100381.47;6160604;23;20029;-85
2020/12/26 07:04:15;;;;;;;11.82;5.93;;;;;;;4.48;76.46;100374.47;6159616;23;20017;-86
2020/12/26 07:06:41;;;;;;;11.73;6.03;;;;;;;4.50;76.54;100370.13;6186601;23;20026;-85
2020/12/26 07:09:08;;;;;;;8.27;5.38;;;;;;;4.51;76.46;100364.00;6186080;23;20483;-85
2020/12/26 07:11:46;;;;;;;8.00;5.80;;;;;;;4.48;75.28;100382.31;6186439;23;20344;-86
2020/12/26 07:14:31;;;;;;;8.95;5.50;;;;;;;4.49;75.25;100368.38;6186174;23;20313;-86
2020/12/26 07:16:59;;;;;;;6.32;4.43;;;;;;;4.51;76.01;100361.38;6160376;23;20025;-85
2020/12/26 07:19:30;;;;;;;8.68;4.75;;;;;;;4.49;75.65;100355.34;6160259;23;20029;-85
2020/12/26 07:22:02;;;;;;;10.57;5.38;;;;;;;4.46;75.64;100358.03;6186264;23;20348;-85
2020/12/26 07:24:36;;;;;;;8.68;5.35;;;;;;;4.45;75.40;100350.25;6186265;23;20032;-86
2020/12/26 07:27:14;;;;;;;12.90;5.18;;;;;;;4.42;74.92;100353.78;6186397;23;20355;-86
2020/12/26 07:30:00;;;;;;;9.60;5.43;;;;;;;4.42;75.17;100351.16;6159859;23;20032;-86
2020/12/26 07:32:39;;;;;;;8.38;5.25;;;;;;;4.42;75.55;100356.38;6160299;23;20051;-86
2020/12/26 07:35:11;;;;;;;12.95;6.30;;;;;;;4.42;75.70;100356.38;6159896;23;20021;-86
2020/12/26 07:37:38;;;;;;;11.83;5.43;;;;;;;4.44;76.25;100365.00;6160120;23;20341;-85
2020/12/26 07:40:05;;;;;;;9.43;5.20;;;;;;;4.43;76.39;100358.97;6186135;23;20025;-86
2020/12/26 07:42:33;;;;;;;8.48;5.72;;;;;;;4.43;76.07;100358.09;6185955;23;20021;-87
2020/12/26 07:45:11;;;;;;;11.90;6.00;;;;;;;4.42;75.56;100377.22;6159712;23;20032;-86
2020/12/26 07:47:48;;;;;;;13.18;6.28;;;;;;;4.42;75.57;100366.81;6159650;23;20025;-86
2020/12/26 07:50:16;;;;;;;10.82;6.38;;;;;;;4.46;76.27;100373.69;6185840;23;20024;-86
2020/12/26 07:52:50;;;;;;;11.98;6.13;;;;;;;4.46;76.23;100372.81;6159858;23;20021;-85
2020/12/26 07:55:17;;;;;;;8.80;6.47;;;;;;;4.48;76.43;100366.66;6160067;23;20354;-85
2020/12/26 07:57:44;;;;;;;10.57;6.65;;;;;;;4.49;76.48;100373.59;6185694;23;20025;-85
2020/12/26 08:00:26;;;;;;;11.05;7.25;;;;;;;4.46;75.42;100378.88;6159940;23;20021;-85
2020/12/26 08:02:53;;;;;;;14.75;7.10;;;;;;;4.51;76.64;100382.25;6159838;23;20017;-86
2020/12/26 08:05:24;;;;;;;11.45;6.63;;;;;;;4.51;76.43;100376.16;6159430;23;20040;-86
2020/12/26 08:07:52;;;;;;;8.15;6.20;;;;;;;4.54;76.67;100379.59;6186031;23;20025;-85
2020/12/26 08:10:19;;;;;;;12.93;7.60;;;;;;;4.55;76.45;100370.88;6186096;23;20028;-85
2020/12/26 08:12:50;;;;;;;12.55;7.18;;;;;;;4.54;76.27;100369.16;6159745;23;20017;-86
2020/12/26 08:15:34;;;;;;;11.68;8.10;;;;;;;4.52;74.89;100375.28;6185566;23;20044;-85
2020/12/26 08:18:02;;;;;;;12.13;7.57;;;;;;;4.55;76.28;100367.38;6159605;23;20032;-86
2020/12/26 08:20:33;;;;;;;12.50;7.28;;;;;;;4.55;76.35;100372.59;6160791;23;20021;-85
2020/12/26 08:22:59;;;;;;;15.70;7.55;;;;;;;4.55;76.05;100356.97;6159804;23;20029;-85
2020/12/26 08:25:27;;;;;;;10.93;7.80;;;;;;;4.55;76.30;100355.22;6159516;23;20498;-86
2020/12/26 08:27:54;;;;;;;19.13;8.05;;;;;;;4.55;76.37;100355.22;6159970;23;20317;-86
2020/12/26 08:30:27;;;;;;;14.05;7.50;;;;;;;4.54;76.41;100353.50;6159860;23;20459;-86
2020/12/26 08:33:05;;;;;;;14.18;8.05;;;;;;;4.53;75.82;100349.16;6159823;23;20017;-85
2020/12/26 08:35:33;;;;;;;13.93;8.45;;;;;;;4.55;76.24;100355.22;6185691;23;20040;-85
2020/12/26 08:38:03;;;;;;;23.40;9.43;;;;;;;4.53;76.10;100359.59;6159994;23;20033;-85
2020/12/26 08:40:34;;;;;;;13.27;8.18;;;;;;;4.55;76.37;100356.97;6159973;23;20021;-85
2020/12/26 08:43:01;;;;;;;13.80;8.63;;;;;;;4.54;76.75;100347.44;6159549;23;20028;-85
2020/12/26 08:45:34;;;;;;;15.40;9.02;;;;;;;4.53;76.47;100343.94;6185985;23;20025;-85
2020/12/26 08:48:14;;;;;;;11.53;8.67;;;;;;;4.52;75.81;100355.28;6187573;23;20100;-85
2020/12/26 08:50:40;;;;;;;14.90;9.48;;;;;;;4.54;76.27;100361.34;6161790;23;20424;-85
2020/12/26 08:53:11;;;;;;;13.55;9.55;;;;;;;4.53;75.97;100349.16;6161467;23;20340;-85
2020/12/26 08:55:51;;;;;;;14.23;10.90;;;;;;;4.49;74.84;100355.34;6187807;23;20032;-85
2020/12/26 08:58:31;;;;;;;14.10;9.50;;;;;;;4.52;76.25;100363.09;6161705;23;20033;-85
2020/12/26 09:00:59;;;;;;;17.42;10.35;;;;;;;4.54;76.78;100353.50;6187706;23;20032;-85
2020/12/26 09:03:31;;;;;;;23.85;10.95;;;;;;;4.54;76.48;100342.22;6160842;23;20482;-85
2020/12/26 09:05:59;;;;;;;17.30;10.90;;;;;;;4.56;76.91;100343.88;6187692;23;20021;-85
2020/12/26 09:08:33;;;;;;;14.63;10.93;;;;;;;4.57;76.02;100342.16;6161521;23;20021;-86
2020/12/26 09:11:00;;;;;;;13.02;10.40;;;;;;;4.61;76.65;100341.19;6187568;23;20021;-85
2020/12/26 09:13:40;;;;;;;17.58;12.15;;;;;;;4.62;76.58;100347.25;6186930;23;20025;-86
2020/12/26 09:16:11;;;;;;;17.17;12.63;;;;;;;4.64;76.64;100348.09;6187329;23;20456;-85
2020/12/26 09:19:04;;;;;;;18.20;12.32;;;;;;;4.62;75.56;100347.25;6187584;23;20025;-85
2020/12/26 09:21:30;;;;;;;17.38;12.75;;;;;;;4.69;76.91;100343.63;6155027;23;20025;-86
2020/12/26 09:23:57;;;;;;;20.15;14.05;;;;;;;4.69;76.62;100348.81;6187191;23;20028;-86
2020/12/26 09:26:28;;;;;;;22.65;13.82;;;;;;;4.70;76.30;100337.50;6161485;23;20100;-85
2020/12/26 09:28:59;;;;;;;19.95;14.13;;;;;;;4.71;76.80;100341.81;6161280;23;20032;-85
2020/12/26 09:31:27;;;;;;;25.25;15.32;;;;;;;4.74;76.77;100327.88;6187581;23;20115;-85
2020/12/26 09:33:54;;;;;;;25.92;14.73;;;;;;;4.76;77.07;100334.75;6160703;23;20028;-85
2020/12/26 09:36:23;;;;;;;21.90;16.65;;;;;;;4.77;76.72;100327.78;6187414;23;20021;-85
2020/12/26 09:38:50;;;;;;;24.30;17.92;;;;;;;4.80;76.85;100325.09;6161331;23;20059;-85
2020/12/26 09:41:19;;;;;;;23.52;16.85;;;;;;;4.81;76.97;100326.81;6187114;23;20029;-85
2020/12/26 09:43:47;;;;;;;30.85;17.25;;;;;;;4.82;76.53;100332.00;6186553;23;20024;-85
2020/12/26 09:46:14;;;;;;;22.80;17.33;;;;;;;4.85;76.56;100325.84;6187242;23;20021;-85
2020/12/26 09:48:43;;;;;;;27.83;18.67;;;;;;;4.86;76.90;100332.78;6161256;23;20025;-85
2020/12/26 09:51:16;;;;;;;26.80;18.85;;;;;;;4.85;76.26;100333.66;6160887;23;20083;-84
2020/12/26 09:53:42;;;;;;;23.58;18.08;;;;;;;4.89;76.95;100324.88;6186916;23;20021;-85
2020/12/26 09:56:10;;;;;;;25.88;18.42;;;;;;;4.92;77.39;100329.16;6161100;23;20025;-85
2020/12/26 09:58:38;;;;;;;25.13;18.63;;;;;;;4.93;76.97;100321.31;6186671;23;20028;-86
2020/12/26 10:01:05;;;;;;;22.33;17.98;;;;;;;4.98;77.32;100317.72;6160699;23;20025;-86
2020/12/26 10:03:32;;;;;;;25.92;18.92;;;;;;;4.98;76.47;100318.59;6160626;23;20043;-86
2020/12/26 10:05:58;;;;;;;25.17;18.77;;;;;;;5.01;76.80;100321.09;6160623;23;20025;-87
2020/12/26 10:08:28;;;;;;;24.13;17.77;;;;;;;5.02;76.52;100312.41;6187176;23;20025;-87
2020/12/26 10:10:54;;;;;;;29.00;20.25;;;;;;;5.04;76.62;100302.78;6160985;23;20029;-86
2020/12/26 10:13:20;;;;;;;26.25;19.23;;;;;;;5.06;76.73;100294.91;6186327;23;20514;-86
2020/12/26 10:15:47;;;;;;;26.45;19.80;;;;;;;5.08;76.72;100293.09;6161014;23;20025;-86
2020/12/26 10:18:14;;;;;;;29.42;20.20;;;;;;;5.09;76.82;100284.41;6187113;23;20028;-86
2020/12/26 10:20:40;;;;;;;29.05;20.65;;;;;;;5.09;76.68;100284.41;6186752;23;20487;-86
2020/12/26 10:23:07;;;;;;;28.10;19.23;;;;;;;5.11;76.62;100284.34;6160422;23;20095;-86
2020/12/26 10:25:46;;;;;;;25.65;18.90;;;;;;;5.13;76.80;100279.94;6186556;23;20021;-87
2020/12/26 10:28:12;;;;;;;28.27;18.65;;;;;;;5.15;76.27;100288.59;6186597;23;20024;-88
2020/12/26 10:30:38;;;;;;;26.45;19.25;;;;;;;5.15;76.25;100284.22;6187200;23;20028;-87
2020/12/26 10:33:05;;;;;;;26.65;19.98;;;;;;;5.17;76.56;100287.69;6160448;23;20017;-87
2020/12/26 10:35:31;;;;;;;27.13;19.02;;;;;;;5.18;76.58;100284.16;6136338;23;20025;-86
2020/12/26 10:37:57;;;;;;;30.55;19.08;;;;;;;5.21;76.50;100291.06;6160767;23;20037;-87
2020/12/26 10:40:24;;;;;;;25.98;19.33;;;;;;;5.22;76.56;100272.75;6160828;23;20155;-86
2020/12/26 10:42:50;;;;;;;29.70;18.48;;;;;;;5.24;76.56;100251.81;6186307;23;20021;-86
2020/12/26 10:45:16;;;;;;;27.63;19.27;;;;;;;5.24;76.14;100246.59;6160164;23;20025;-86
2020/12/26 10:47:42;;;;;;;26.40;18.88;;;;;;;5.27;76.62;100241.28;6160204;23;20040;-86
2020/12/26 10:50:08;;;;;;;29.92;19.08;;;;;;;5.30;76.55;100233.38;6186178;23;20027;-85
2020/12/26 10:52:34;;;;;;;26.33;18.27;;;;;;;5.31;76.57;100240.31;6160477;23;20017;-86
2020/12/26 10:55:00;;;;;;;26.88;18.33;;;;;;;5.33;76.23;100241.13;6160138;23;20025;-85
2020/12/26 10:57:26;;;;;;;27.08;18.05;;;;;;;5.34;76.26;100242.84;6186679;23;20044;-85
2020/12/26 10:59:52;;;;;;;24.13;18.05;;;;;;;5.35;76.52;100241.94;6160136;23;20028;-86
2020/12/26 11:02:18;;;;;;;30.65;20.48;;;;;;;5.34;75.89;100232.41;6160183;23;20408;-85
2020/12/26 11:04:44;;;;;;;27.10;19.42;;;;;;;5.38;76.29;100216.66;6186060;23;20044;-85
2020/12/26 11:07:10;;;;;;;25.95;17.52;;;;;;;5.39;76.26;100216.63;6160209;23;20025;-86
2020/12/26 11:09:36;;;;;;;24.60;17.50;;;;;;;5.43;76.50;100226.06;6160181;23;20352;-85
2020/12/26 11:12:02;;;;;;;24.83;18.20;;;;;;;5.45;76.49;100208.59;6185818;23;20482;-85
2020/12/26 11:14:29;;;;;;;22.15;16.63;;;;;;;5.48;76.23;100208.53;6186288;23;20037;-85
2020/12/26 11:16:55;;;;;;;25.52;17.90;;;;;;;5.48;75.78;100187.63;6160028;23;20025;-84
2020/12/26 11:19:22;;;;;;;21.27;16.35;;;;;;;5.49;75.30;100193.69;6186397;23;20028;-85
2020/12/26 11:21:52;;;;;;;23.67;16.52;;;;;;;5.49;74.75;100198.91;6159994;23;20036;-86
2020/12/26 11:24:18;;;;;;;24.15;16.65;;;;;;;5.52;75.86;100175.34;6159538;23;20364;-85
2020/12/26 11:26:44;;;;;;;24.65;16.27;;;;;;;5.54;76.03;100168.31;6159823;23;20025;-86
2020/12/26 11:29:11;;;;;;;23.63;16.60;;;;;;;5.55;75.41;100172.63;6160320;23;20024;-85
2020/12/26 11:31:37;;;;;;;21.25;15.95;;;;;;;5.57;75.56;100165.59;6186335;23;20028;-86
2020/12/26 11:34:03;;;;;;;20.90;15.65;;;;;;;5.59;75.95;100173.38;6186025;23;20028;-86
2020/12/26 11:36:29;;;;;;;24.75;15.75;;;;;;;5.59;75.76;100169.03;6160189;23;20032;-86